Aérodrome :
LOGIN :

S'inscrire | Disclaimer

   EN    FR    IT 

 










Légende :    VFR   VFR Marginal   IFR   IFR Intensif   IFR Très Intensif
Visi : 
Plafond : 
>= 8 km
>= 3000ft
5 à 8 km
1000 à 3000 ft
1500m à 5 km
500 à 1000 ft
800 à 1500m
200 à 500 ft
< 800m
< 200 ft
Symboles :   Orages  Brouillard  Fortes neiges  Fortes précipitations  Vent > 20 kt
SIGMETs :   Divers  Orages  Givrage  Turbulence  Onde Orograph.  Cendres Volcan.






- Altitude de l'aérodrome : 194 ft


EBCV - Chièvres

DERNIER METAR :
  • 091925Z AUTO VRB02KT 4200 BR BKN008/// M01/M01 Q1007 GRN

METARs EXPIRÉS :
  • 090455Z AUTO VRB01KT 0250 FG OVC002/// M02/M02 Q1006 RED
  • 091855Z AUTO 06003KT 5000 BR BKN008/// M01/M01 Q1007 GRN
  • 091825Z AUTO VRB01KT 4400 BR OVC008/// M01/M01 Q1007 GRN
  • 091823Z AUTO VRB01KT 4200 BR OVC008/// M01/M01 Q1007 GRN
  • 091755Z AUTO VRB02KT 4800 BR BKN006/// M01/M01 Q1007 YLO
  • 091725Z AUTO VRB02KT 2900 BR OVC004/// M01/M01 Q1007 YLO
  • 091655Z AUTO 07004KT 2800 BR OVC004/// M01/M01 Q1006 YLO
  • 091643Z AUTO 08004KT 2900 BR OVC003/// M01/M01 Q1006 YLO

TAF TAF EBCV
Valide du 09 à 19h jusqu'au 10 à 07h UTC


091610Z 0919/1007 22005KT 1000 MIFG SCT002 BKN003
BECMG 0921/0923 VRB01KT 500 FZFG SCT001 OVC002 BY EBWM



MET'MAP, la Météo Aéronautique d'un coup d'oeil ! - Copyright ORBIFLY Décembre 2007 - Disclaimer

ORBIFLY MET'MAP TEAM :

Programmation & Développement : Alexandra Zaïnal
Sur une idée originale de : Baudouin d'Aumeries
Soutien technique & logistique : Manuel Goepfert
Assistance : Marc-Olivier Méhu




SOURCES & CREDITS :

   NOAA